PASV/SVW METAR and TAF weather

Enter ICAO airport designator
Station Type Date Time Source
PASV METAR 2020/04/10 14:10 UTC NOAA

PASV 101410Z AUTO 00000KT 10SM FEW022 OVC037 M03/M08 A3041 RMK AO2 SLP326


Station Type Date Time Source
PASV Decoded METAR 2020/04/10 14:10 UTC NOAA

Sparrevohn Airways Facilities Sector, AK, United States (PASV) 61-06N 155-34W
Apr 10, 2020 - 10:10 AM EDT / 2020.04.10 1410 UTC
Wind: Calm:0
Visibility: 10 mile(s):0
Sky conditions: overcast
Temperature: 26 F (-3 C)
Dew Point: 17 F (-8 C)
Relative Humidity: 68%
Pressure (altimeter): 30.41 in. Hg (1029 hPa)
ob: PASV 101410Z AUTO 00000KT 10SM FEW022 OVC037 M03/M08 A3041 RMK AO2 SLP326
cycle: 14

Station Type Date Time Source
PASV TAF 2012/01/12 14:57 UTC NOAA

TAF
AMD PASV 1214/1320 33010G15KT 4800 -SN BLSN SCT003 SCT110 QNH2984INS
BECMG 1221/1222 VRB06KT 9999 NSW FEW010 SCT110 QNH3000INS LIMITED METWATCH TM25/1300Z TM37/1315Z
AMD 121453

Example: see airport list